Time;durP1;ratioP1;P1;durP2;ratioP2;P2;SDS_P1;SDS_P2;PMS_P1;PMS_P2;Temp;Humidity;BMP_temperature;BMP_pressure;BME280_temperature;BME280_humidity;BME280_pressure;Samples;Min_cycle;Max_cycle;Signal;HPM_P1;HPM_P2
2021/07/08 00:02:01;;;;;;;11.65;10.55;;;22.50;83.70;;;;;;5075382;28;20183;-83
2021/07/08 00:04:29;;;;;;;11.02;10.02;;;22.50;83.70;;;;;;5058744;28;20270;-83
2021/07/08 00:06:55;;;;;;;11.23;10.20;;;22.50;83.60;;;;;;5076366;28;20160;-84
2021/07/08 00:09:25;;;;;;;11.00;10.00;;;22.50;83.60;;;;;;5092868;28;20620;-84
2021/07/08 00:11:52;;;;;;;11.15;10.10;;;22.60;83.80;;;;;;5075455;28;20546;-83
2021/07/08 00:14:18;;;;;;;11.10;10.10;;;22.50;83.60;;;;;;5093974;28;20635;-83
2021/07/08 00:16:44;;;;;;;10.90;9.90;;;22.60;83.60;;;;;;5075888;28;20161;-84
2021/07/08 00:19:10;;;;;;;10.95;9.95;;;22.50;83.60;;;;;;5093882;28;20684;-83
2021/07/08 00:21:37;;;;;;;11.68;10.57;;;22.50;83.50;;;;;;5092774;28;20182;-82
2021/07/08 00:24:05;;;;;;;11.75;10.65;;;22.50;83.50;;;;;;5092732;28;20165;-84
2021/07/08 00:26:32;;;;;;;10.38;9.48;;;22.50;83.50;;;;;;5092489;28;20364;-82
2021/07/08 00:28:58;;;;;;;11.43;10.32;;;22.50;83.50;;;;;;5092534;28;20152;-82
2021/07/08 00:31:24;;;;;;;11.00;9.98;;;22.60;83.50;;;;;;5126557;27;20160;-83
2021/07/08 00:33:50;;;;;;;10.65;9.65;;;22.50;83.50;;;;;;5092412;28;20163;-84
2021/07/08 00:36:16;;;;;;;11.45;10.35;;;22.50;83.50;;;;;;5075722;28;20255;-81
2021/07/08 00:38:42;;;;;;;11.00;10.00;;;22.50;83.50;;;;;;5092413;28;20192;-83
2021/07/08 00:41:08;;;;;;;10.32;9.32;;;22.50;83.40;;;;;;5092583;28;20607;-82
2021/07/08 00:43:35;;;;;;;10.35;9.35;;;22.50;83.40;;;;;;5092749;28;20696;-82
2021/07/08 00:46:01;;;;;;;11.38;10.27;;;22.50;83.40;;;;;;5075429;28;20160;-83
2021/07/08 00:48:27;;;;;;;11.52;10.43;;;22.60;83.40;;;;;;5092247;28;20581;-82
2021/07/08 00:50:53;;;;;;;11.15;10.13;;;22.60;83.50;;;;;;5094035;28;20198;-82
2021/07/08 00:53:20;;;;;;;10.73;9.73;;;22.50;83.40;;;;;;5093164;28;20511;-83
2021/07/08 00:55:52;;;;;;;10.90;9.90;;;22.50;83.40;;;;;;5126958;27;20209;-83
2021/07/08 00:58:18;;;;;;;11.25;10.15;;;22.50;83.40;;;;;;5093596;28;20211;-82
2021/07/08 01:00:46;;;;;;;11.18;10.18;;;22.50;83.30;;;;;;5075325;28;20157;-83
2021/07/08 01:03:13;;;;;;;11.45;10.35;;;22.50;83.30;;;;;;5092205;28;20600;-82
2021/07/08 01:05:43;;;;;;;10.75;9.75;;;22.50;83.30;;;;;;5092023;28;20153;-81
2021/07/08 01:08:11;;;;;;;11.30;10.20;;;22.50;83.40;;;;;;5075784;28;20199;-83
2021/07/08 01:10:39;;;;;;;11.32;10.23;;;22.50;83.40;;;;;;5058145;28;20249;-84
2021/07/08 01:13:06;;;;;;;12.10;10.93;;;22.50;83.40;;;;;;5057782;28;20184;-84
2021/07/08 01:15:33;;;;;;;11.02;10.02;;;22.50;83.40;;;;;;5041025;28;20184;-82
2021/07/08 01:17:59;;;;;;;11.32;10.30;;;22.50;83.30;;;;;;5074509;28;20299;-84
2021/07/08 01:20:28;;;;;;;10.90;9.90;;;22.50;83.40;;;;;;5074143;28;20181;-83
2021/07/08 01:22:58;;;;;;;11.32;10.30;;;22.50;83.30;;;;;;5093447;28;20152;-83
2021/07/08 01:25:27;;;;;;;11.75;10.65;;;22.50;83.40;;;;;;5092156;28;20160;-83
2021/07/08 01:27:54;;;;;;;11.15;10.15;;;22.60;83.40;;;;;;5075052;28;20161;-83
2021/07/08 01:30:20;;;;;;;11.07;10.07;;;22.50;83.30;;;;;;5092027;28;20255;-82
2021/07/08 01:32:46;;;;;;;11.02;10.00;;;22.50;83.40;;;;;;5091913;28;20236;-84
2021/07/08 01:35:13;;;;;;;11.27;10.18;;;22.50;83.30;;;;;;5092994;28;20214;-83
2021/07/08 01:37:39;;;;;;;11.60;10.50;;;22.50;83.40;;;;;;5093231;28;20168;-82
2021/07/08 01:40:06;;;;;;;11.35;10.30;;;22.50;83.40;;;;;;5093127;28;20161;-83
2021/07/08 01:42:32;;;;;;;11.65;10.55;;;22.50;83.30;;;;;;5109300;28;20186;-83
2021/07/08 01:44:58;;;;;;;11.35;10.20;;;22.50;83.50;;;;;;5095825;28;20153;-83
2021/07/08 01:47:24;;;;;;;11.05;10.05;;;22.50;83.40;;;;;;5096794;28;20493;-82
2021/07/08 01:49:50;;;;;;;11.48;10.38;;;22.50;83.40;;;;;;5095579;28;20562;-84
2021/07/08 01:52:16;;;;;;;11.43;10.32;;;22.50;83.30;;;;;;5095917;28;20149;-82
2021/07/08 01:54:42;;;;;;;11.35;10.25;;;22.50;83.30;;;;;;5095152;28;20240;-82
2021/07/08 01:57:08;;;;;;;11.77;10.68;;;22.50;84.10;;;;;;5095307;28;20199;-83
2021/07/08 01:59:34;;;;;;;10.63;9.57;;;22.50;84.10;;;;;;5095431;28;20204;-82
2021/07/08 02:02:00;;;;;;;12.07;10.98;;;22.50;83.40;;;;;;5095622;28;20172;-84
2021/07/08 02:04:28;;;;;;;11.40;10.32;;;22.50;83.40;;;;;;5095286;28;20157;-83
2021/07/08 02:06:55;;;;;;;11.02;10.02;;;22.50;83.40;;;;;;5077616;28;20179;-83
2021/07/08 02:09:22;;;;;;;11.57;10.48;;;22.50;83.40;;;;;;5094535;28;20189;-81
2021/07/08 02:11:50;;;;;;;11.68;10.57;;;22.50;83.30;;;;;;5078248;28;20189;-83
2021/07/08 02:14:17;;;;;;;11.60;10.50;;;22.50;83.40;;;;;;5077318;28;20212;-83
2021/07/08 02:16:44;;;;;;;11.55;10.45;;;22.50;83.20;;;;;;5077484;28;20544;-84
2021/07/08 02:19:11;;;;;;;11.40;10.30;;;22.50;84.10;;;;;;5060565;28;20705;-82
2021/07/08 02:21:38;;;;;;;10.95;9.95;;;22.50;83.30;;;;;;5077369;28;20538;-82
2021/07/08 02:24:05;;;;;;;11.60;10.50;;;22.60;83.40;;;;;;5060825;28;20263;-82
2021/07/08 02:26:31;;;;;;;11.43;10.32;;;22.50;83.40;;;;;;5096088;28;20240;-82
2021/07/08 02:28:57;;;;;;;11.57;10.48;;;22.50;83.20;;;;;;5094823;28;20172;-84
2021/07/08 02:31:23;;;;;;;11.75;10.65;;;22.50;83.30;;;;;;5094847;28;20153;-82
2021/07/08 02:33:49;;;;;;;11.25;10.15;;;22.50;83.20;;;;;;5094738;28;20192;-81
2021/07/08 02:36:15;;;;;;;11.10;10.02;;;22.50;83.20;;;;;;5094730;28;20177;-83
2021/07/08 02:38:41;;;;;;;11.10;10.00;;;22.50;83.20;;;;;;5095852;28;20212;-83
2021/07/08 02:41:08;;;;;;;11.80;10.60;;;22.50;83.20;;;;;;5077814;28;20152;-84
2021/07/08 02:43:35;;;;;;;11.30;10.27;;;22.50;83.10;;;;;;5078042;28;20558;-82
2021/07/08 02:46:01;;;;;;;11.40;10.40;;;22.50;83.20;;;;;;5095752;28;20236;-82
2021/07/08 02:48:27;;;;;;;11.00;10.00;;;22.50;83.20;;;;;;5094654;28;20164;-82
2021/07/08 02:50:55;;;;;;;10.63;9.63;;;22.40;83.20;;;;;;5094448;28;20239;-83
2021/07/08 02:53:20;;;;;;;11.02;10.02;;;22.50;83.20;;;;;;5094362;28;20233;-83
2021/07/08 02:55:46;;;;;;;10.93;9.88;;;22.60;83.20;;;;;;5094404;28;20675;-82
2021/07/08 02:58:13;;;;;;;11.48;10.38;;;22.50;83.00;;;;;;5094304;28;20247;-82
2021/07/08 03:00:39;;;;;;;11.48;10.38;;;22.50;84.00;;;;;;5094766;28;20169;-82
2021/07/08 03:03:05;;;;;;;11.13;10.13;;;22.50;83.20;;;;;;5095544;28;20157;-84
2021/07/08 03:05:33;;;;;;;10.90;9.90;;;22.50;83.10;;;;;;5077216;28;20639;-81
2021/07/08 03:07:59;;;;;;;11.30;10.20;;;22.50;83.10;;;;;;5076457;28;20263;-83
2021/07/08 03:10:28;;;;;;;11.57;10.52;;;22.50;83.10;;;;;;5094188;28;20556;-84
2021/07/08 03:12:55;;;;;;;11.13;10.13;;;22.50;83.00;;;;;;5059664;28;20216;-83
2021/07/08 03:15:21;;;;;;;11.30;10.27;;;22.50;83.00;;;;;;5076359;28;20272;-83
2021/07/08 03:17:48;;;;;;;11.80;10.70;;;22.50;83.00;;;;;;5094048;28;20227;-82
2021/07/08 03:20:18;;;;;;;11.00;10.00;;;22.50;83.00;;;;;;5076138;28;20714;-82
2021/07/08 03:22:46;;;;;;;11.73;10.63;;;22.50;82.90;;;;;;5059881;28;20226;-83
2021/07/08 03:25:13;;;;;;;11.35;10.25;;;22.50;82.90;;;;;;5076276;28;20693;-82
2021/07/08 03:27:40;;;;;;;11.48;10.45;;;22.50;82.80;;;;;;5043211;28;20177;-82
2021/07/08 03:30:07;;;;;;;11.45;10.40;;;22.50;82.80;;;;;;5093721;28;20184;-81
2021/07/08 03:32:33;;;;;;;10.80;9.80;;;22.50;82.70;;;;;;5093622;28;20190;-81
2021/07/08 03:35:01;;;;;;;10.80;9.80;;;22.50;82.70;;;;;;5093298;28;20176;-81
2021/07/08 03:37:28;;;;;;;11.45;10.35;;;22.60;82.60;;;;;;5059343;28;20188;-81
2021/07/08 03:39:55;;;;;;;10.85;9.85;;;22.60;82.50;;;;;;5076086;28;20212;-81
2021/07/08 03:42:21;;;;;;;11.32;10.23;;;22.60;82.50;;;;;;5075786;28;20650;-82
2021/07/08 03:44:48;;;;;;;11.55;10.45;;;22.60;82.30;;;;;;5093397;28;20181;-82
2021/07/08 03:47:17;;;;;;;11.52;10.43;;;22.60;82.10;;;;;;5075617;28;20181;-83
2021/07/08 03:49:45;;;;;;;11.10;10.10;;;22.70;83.00;;;;;;5059003;28;20191;-81
2021/07/08 03:52:14;;;;;;;11.23;10.23;;;22.70;82.10;;;;;;5092824;28;20230;-83
2021/07/08 03:54:43;;;;;;;10.93;9.85;;;22.60;82.00;;;;;;5091999;28;20240;-83
2021/07/08 03:57:12;;;;;;;10.70;9.70;;;22.60;82.00;;;;;;5059224;28;20176;-83
2021/07/08 03:59:42;;;;;;;11.10;10.00;;;22.60;82.00;;;;;;5075522;28;20220;-82
2021/07/08 04:02:12;;;;;;;10.68;9.68;;;22.60;81.80;;;;;;5092579;28;20204;-83
2021/07/08 04:04:41;;;;;;;10.32;9.43;;;22.60;81.70;;;;;;5058402;28;20181;-82
2021/07/08 04:07:10;;;;;;;10.68;9.68;;;22.70;81.80;;;;;;5042047;28;20187;-82
2021/07/08 04:09:38;;;;;;;10.95;9.93;;;22.60;81.60;;;;;;5075575;28;20275;-82
2021/07/08 04:12:04;;;;;;;10.68;9.68;;;22.70;81.50;;;;;;5092176;28;20187;-83
2021/07/08 04:14:30;;;;;;;9.95;9.05;;;22.70;81.40;;;;;;5093077;28;20168;-84
2021/07/08 04:16:56;;;;;;;10.75;9.75;;;22.60;81.00;;;;;;5075946;28;20619;-81
2021/07/08 04:19:21;;;;;;;10.40;9.40;;;22.80;80.80;;;;;;5092913;28;20203;-81
2021/07/08 04:21:47;;;;;;;10.07;9.18;;;22.80;80.20;;;;;;5092793;28;20623;-83
2021/07/08 04:24:13;;;;;;;9.35;8.55;;;22.90;80.00;;;;;;5093700;28;20156;-83
2021/07/08 04:26:40;;;;;;;9.45;8.65;;;22.90;79.60;;;;;;5092668;28;20160;-82
2021/07/08 04:29:07;;;;;;;10.70;9.70;;;23.00;79.40;;;;;;5058307;28;20682;-82
2021/07/08 04:31:34;;;;;;;9.60;8.70;;;23.00;79.20;;;;;;5091951;28;20187;-81
2021/07/08 04:34:02;;;;;;;9.98;9.07;;;23.00;78.90;;;;;;5074828;28;20183;-81
2021/07/08 04:36:29;;;;;;;10.25;9.35;;;23.00;78.70;;;;;;5074900;28;20211;-83
2021/07/08 04:38:56;;;;;;;9.60;8.77;;;23.10;78.50;;;;;;5074742;28;20208;-83
2021/07/08 04:41:23;;;;;;;9.82;8.93;;;23.00;78.40;;;;;;5057893;28;20297;-83
2021/07/08 04:43:50;;;;;;;9.55;8.75;;;23.00;78.40;;;;;;5057912;28;20203;-82
2021/07/08 04:46:17;;;;;;;9.82;8.93;;;23.00;79.00;;;;;;5041357;28;20726;-81
2021/07/08 04:48:44;;;;;;;8.88;8.07;;;23.00;78.40;;;;;;5074709;28;20188;-83
2021/07/08 04:51:12;;;;;;;9.43;8.52;;;23.10;78.10;;;;;;5075352;28;20650;-82
2021/07/08 04:53:38;;;;;;;9.30;8.50;;;23.10;78.00;;;;;;5074280;28;20575;-83
2021/07/08 04:56:05;;;;;;;9.88;8.98;;;23.10;78.00;;;;;;5075555;28;20177;-82
2021/07/08 04:58:32;;;;;;;8.95;8.15;;;23.10;77.90;;;;;;5041157;28;20233;-82
2021/07/08 05:00:58;;;;;;;9.07;8.27;;;23.10;78.10;;;;;;5057679;28;20185;-84
2021/07/08 05:03:24;;;;;;;9.05;8.25;;;23.10;78.10;;;;;;5092166;28;20209;-82
2021/07/08 05:05:49;;;;;;;10.13;9.23;;;23.10;78.30;;;;;;5074991;28;20255;-83
2021/07/08 05:08:15;;;;;;;9.30;8.40;;;23.10;78.10;;;;;;5075294;28;20255;-82
2021/07/08 05:10:41;;;;;;;8.77;7.97;;;23.10;78.00;;;;;;5092081;28;20164;-83
2021/07/08 05:13:08;;;;;;;9.68;8.57;;;23.10;77.50;;;;;;5092031;28;20160;-82
2021/07/08 05:15:35;;;;;;;9.68;8.77;;;23.10;77.90;;;;;;5075249;28;20176;-83
2021/07/08 05:18:01;;;;;;;9.10;8.30;;;23.10;78.00;;;;;;5096377;28;20148;-82
2021/07/08 05:20:27;;;;;;;8.48;7.68;;;23.10;77.70;;;;;;5096105;28;20171;-84
2021/07/08 05:23:04;;;;;;;9.82;8.93;;;23.10;77.80;;;;;;5096071;28;20180;-82
2021/07/08 05:25:31;;;;;;;8.63;7.82;;;23.10;77.90;;;;;;5049081;28;20180;-81
2021/07/08 05:27:58;;;;;;;9.45;8.60;;;23.10;77.90;;;;;;5078488;28;20172;-81
2021/07/08 05:30:25;;;;;;;8.70;7.95;;;23.10;77.80;;;;;;5044716;28;20700;-83
2021/07/08 05:32:52;;;;;;;8.70;7.90;;;23.10;77.80;;;;;;5061316;28;20180;-82
2021/07/08 05:35:19;;;;;;;8.35;7.65;;;23.10;77.50;;;;;;5061548;28;20177;-83
2021/07/08 05:37:48;;;;;;;8.75;8.02;;;23.20;77.30;;;;;;5095920;28;20188;-83
2021/07/08 05:40:14;;;;;;;9.15;8.25;;;23.10;77.20;;;;;;5096214;28;20157;-83
2021/07/08 05:42:39;;;;;;;8.38;7.68;;;23.20;77.50;;;;;;5096986;28;20233;-82
2021/07/08 05:45:06;;;;;;;8.50;7.70;;;23.20;77.00;;;;;;5095897;28;20195;-82
2021/07/08 05:47:32;;;;;;;8.25;7.55;;;23.20;76.90;;;;;;5078725;28;20597;-82
2021/07/08 05:49:58;;;;;;;9.25;8.45;;;23.20;77.40;;;;;;5095718;28;20161;-83
2021/07/08 05:52:24;;;;;;;9.05;8.25;;;23.30;76.60;;;;;;5095567;28;20203;-83
2021/07/08 05:54:50;;;;;;;9.20;8.40;;;23.20;76.60;;;;;;5095519;28;20217;-82
2021/07/08 05:57:15;;;;;;;8.85;8.05;;;23.30;76.40;;;;;;5095541;28;20153;-84
2021/07/08 05:59:41;;;;;;;9.13;8.32;;;23.30;76.40;;;;;;5078594;28;20200;-83
2021/07/08 06:02:08;;;;;;;8.18;7.47;;;23.30;76.50;;;;;;5078448;28;20620;-81
2021/07/08 06:04:35;;;;;;;8.95;8.15;;;23.20;76.70;;;;;;5078007;28;20188;-82
2021/07/08 06:07:03;;;;;;;8.60;7.80;;;23.20;76.70;;;;;;5077884;28;20267;-82
2021/07/08 06:09:30;;;;;;;8.85;8.05;;;23.20;76.40;;;;;;5077556;28;20188;-83
2021/07/08 06:11:58;;;;;;;9.20;8.40;;;23.30;76.70;;;;;;5061555;28;20187;-81
2021/07/08 06:14:25;;;;;;;7.93;7.22;;;23.20;76.80;;;;;;5061140;28;20237;-82
2021/07/08 06:16:52;;;;;;;9.50;8.60;;;23.20;76.60;;;;;;5094548;28;20279;-81
2021/07/08 06:19:18;;;;;;;8.68;7.88;;;23.10;76.60;;;;;;5077430;28;20200;-83
2021/07/08 06:21:44;;;;;;;9.25;8.45;;;23.10;76.50;;;;;;5078237;28;20369;-81
2021/07/08 06:24:09;;;;;;;9.57;8.73;;;23.20;76.50;;;;;;5095057;28;20172;-81
2021/07/08 06:26:35;;;;;;;9.13;8.20;;;23.20;76.50;;;;;;5096371;28;20155;-84
2021/07/08 06:29:01;;;;;;;8.38;7.50;;;23.20;76.50;;;;;;5094100;28;20587;-83
2021/07/08 06:31:27;;;;;;;9.20;8.40;;;23.20;76.20;;;;;;5078112;28;20168;-82
2021/07/08 06:33:52;;;;;;;8.55;7.80;;;23.20;76.10;;;;;;5094835;28;20573;-83
2021/07/08 06:36:18;;;;;;;8.23;7.53;;;23.30;75.90;;;;;;5095959;28;20214;-82
2021/07/08 06:38:44;;;;;;;8.23;7.50;;;23.30;75.80;;;;;;5094920;28;20214;-82
2021/07/08 06:41:10;;;;;;;8.55;7.78;;;23.30;75.50;;;;;;5094822;28;20256;-81
2021/07/08 06:43:36;;;;;;;8.60;7.80;;;23.30;75.50;;;;;;5094886;28;20168;-82
2021/07/08 06:46:02;;;;;;;8.77;7.97;;;23.40;75.20;;;;;;5095670;28;20636;-82
2021/07/08 06:48:28;;;;;;;8.95;8.15;;;23.30;75.20;;;;;;5098144;28;20239;-81
2021/07/08 06:50:54;;;;;;;9.15;8.25;;;23.40;75.20;;;;;;5096306;28;20530;-80
2021/07/08 06:53:19;;;;;;;8.63;7.85;;;23.30;74.80;;;;;;5077599;28;20627;-83
2021/07/08 06:55:45;;;;;;;8.20;7.50;;;23.30;74.90;;;;;;5094789;28;20172;-86
2021/07/08 06:58:11;;;;;;;8.77;7.97;;;23.30;74.40;;;;;;5095872;28;20200;-81
2021/07/08 07:00:38;;;;;;;9.43;8.52;;;23.40;74.50;;;;;;5095802;28;20160;-81
2021/07/08 07:03:05;;;;;;;8.90;7.97;;;23.30;74.40;;;;;;5078615;28;20282;-84
2021/07/08 07:05:31;;;;;;;8.73;7.53;;;23.40;74.40;;;;;;5094755;28;20149;-81
2021/07/08 07:07:57;;;;;;;8.65;7.78;;;23.40;73.90;;;;;;5077527;28;20507;-84
2021/07/08 07:10:27;;;;;;;10.73;8.15;;;23.50;73.60;;;;;;5095630;28;20157;-83
2021/07/08 07:12:54;;;;;;;8.48;7.57;;;23.40;73.90;;;;;;5076866;28;20176;-82
2021/07/08 07:15:24;;;;;;;8.40;7.60;;;23.40;73.80;;;;;;5094128;28;20157;-83
2021/07/08 07:17:50;;;;;;;8.30;7.50;;;23.40;73.40;;;;;;5094834;28;20160;-81
2021/07/08 07:20:17;;;;;;;9.68;8.45;;;23.40;73.60;;;;;;5077549;28;20218;-81
2021/07/08 07:22:45;;;;;;;10.70;7.80;;;23.40;73.70;;;;;;5093904;28;20187;-84
2021/07/08 07:25:11;;;;;;;8.57;7.78;;;23.30;73.90;;;;;;5093757;28;20149;-85
2021/07/08 07:27:40;;;;;;;7.97;7.28;;;23.40;73.50;;;;;;5094843;28;20164;-81
2021/07/08 07:30:09;;;;;;;9.05;7.95;;;23.40;73.30;;;;;;5075758;28;20188;-81
2021/07/08 07:32:38;;;;;;;8.40;7.60;;;23.50;73.20;;;;;;5059582;28;20185;-81
2021/07/08 07:35:07;;;;;;;8.23;7.53;;;23.50;73.20;;;;;;5059410;28;20279;-83
2021/07/08 07:37:35;;;;;;;8.07;7.28;;;23.50;73.00;;;;;;5059136;28;20202;-83
2021/07/08 07:40:04;;;;;;;8.30;7.50;;;23.50;72.70;;;;;;5075489;28;20271;-81
2021/07/08 07:42:33;;;;;;;8.50;7.70;;;23.60;73.50;;;;;;5075850;28;20176;-84
2021/07/08 07:45:03;;;;;;;8.43;7.60;;;23.60;73.00;;;;;;5059554;28;20585;-80
2021/07/08 07:47:31;;;;;;;8.45;7.65;;;23.50;72.80;;;;;;5059934;28;20175;-82
2021/07/08 07:50:00;;;;;;;8.95;8.15;;;23.60;72.60;;;;;;5075735;28;20712;-81
2021/07/08 07:52:25;;;;;;;8.88;7.97;;;23.60;72.50;;;;;;5075711;28;20517;-81
2021/07/08 07:54:51;;;;;;;8.45;7.60;;;23.60;72.60;;;;;;5093125;28;20235;-81
2021/07/08 07:57:17;;;;;;;8.18;7.38;;;23.60;72.60;;;;;;5093516;28;20153;-82
2021/07/08 07:59:43;;;;;;;8.73;7.82;;;23.50;72.80;;;;;;5093472;28;20191;-83
2021/07/08 08:02:12;;;;;;;8.82;7.93;;;23.50;72.90;;;;;;5076834;28;20184;-82
2021/07/08 08:04:44;;;;;;;8.80;7.90;;;23.40;73.00;;;;;;5096393;28;20665;-83
2021/07/08 08:09:50;;;;;;;10.02;7.72;;;23.30;73.20;;;;;;5077610;28;20242;-83
2021/07/08 08:12:17;;;;;;;9.77;7.90;;;23.40;73.20;;;;;;5058906;28;20188;-81
2021/07/08 08:14:44;;;;;;;8.80;8.00;;;23.50;72.90;;;;;;5075994;28;20195;-82
2021/07/08 08:17:10;;;;;;;8.25;7.45;;;23.50;72.50;;;;;;5076090;28;20246;-82
2021/07/08 08:19:36;;;;;;;7.72;7.03;;;23.50;72.40;;;;;;5094341;28;20185;-85
2021/07/08 08:22:05;;;;;;;8.60;7.80;;;23.60;72.20;;;;;;5092935;28;20244;-82
2021/07/08 08:24:31;;;;;;;8.48;7.65;;;23.60;72.20;;;;;;5075710;28;20192;-80
2021/07/08 08:26:56;;;;;;;9.50;8.38;;;23.50;72.30;;;;;;5092686;28;20236;-80
2021/07/08 08:29:24;;;;;;;8.98;8.18;;;23.60;72.50;;;;;;5093819;28;20164;-81
2021/07/08 08:31:50;;;;;;;8.50;7.70;;;23.60;73.20;;;;;;5076126;28;20210;-83
2021/07/08 08:34:18;;;;;;;8.02;7.22;;;23.50;72.10;;;;;;5075827;28;20153;-82
2021/07/08 08:36:45;;;;;;;8.48;7.68;;;23.60;72.10;;;;;;5075616;28;20209;-84
2021/07/08 08:39:11;;;;;;;8.23;7.40;;;23.60;72.00;;;;;;5075622;28;20184;-82
2021/07/08 08:41:36;;;;;;;8.48;7.68;;;23.60;72.00;;;;;;5092475;28;20157;-82
2021/07/08 08:44:03;;;;;;;9.13;8.23;;;23.60;72.20;;;;;;5093735;28;20153;-84
2021/07/08 08:46:29;;;;;;;8.48;7.68;;;23.50;71.90;;;;;;5092671;28;20520;-83
2021/07/08 08:48:55;;;;;;;8.10;7.25;;;23.60;71.80;;;;;;5092568;28;20633;-83
2021/07/08 08:51:21;;;;;;;7.80;7.10;;;23.50;71.20;;;;;;5091853;28;20156;-81
2021/07/08 08:53:47;;;;;;;8.00;7.30;;;23.60;71.30;;;;;;5092265;28;20671;-81
2021/07/08 08:56:14;;;;;;;7.53;6.82;;;23.70;70.40;;;;;;5093546;28;20165;-81
2021/07/08 08:58:40;;;;;;;7.50;6.80;;;23.70;70.00;;;;;;5093304;28;20238;-84
2021/07/08 09:01:07;;;;;;;8.18;7.43;;;23.80;69.90;;;;;;5092115;28;20532;-81
2021/07/08 09:03:34;;;;;;;8.77;7.97;;;23.70;69.80;;;;;;5092104;28;20604;-82
2021/07/08 09:06:06;;;;;;;7.47;6.78;;;23.70;70.50;;;;;;5076116;28;20176;-82
2021/07/08 09:08:34;;;;;;;7.82;7.13;;;23.60;70.30;;;;;;5109148;28;20180;-85
2021/07/08 09:11:18;;;;;;;8.10;7.32;;;23.50;70.90;;;;;;5109356;28;20545;-82
2021/07/08 09:14:00;;;;;;;8.88;8.07;;;23.50;71.50;;;;;;5092460;28;20180;-80
2021/07/08 09:16:30;;;;;;;8.75;7.82;;;23.40;70.80;;;;;;5092476;28;20671;-81
2021/07/08 09:19:10;;;;;;;8.35;7.47;;;23.50;71.70;;;;;;5092211;28;20184;-81
2021/07/08 09:21:47;;;;;;;8.60;7.63;;;23.30;71.80;;;;;;5076278;28;20180;-81
2021/07/08 09:24:20;;;;;;;8.65;7.75;;;23.50;71.60;;;;;;5092754;28;20552;-81
2021/07/08 09:26:59;;;;;;;8.27;7.47;;;23.40;71.20;;;;;;5059134;28;20551;-82
2021/07/08 09:29:31;;;;;;;7.75;7.05;;;23.50;71.40;;;;;;5109273;28;20531;-84
2021/07/08 09:32:06;;;;;;;8.73;7.72;;;23.50;70.80;;;;;;5058636;28;20196;-85
2021/07/08 09:34:36;;;;;;;8.75;7.00;;;23.60;70.40;;;;;;5093358;28;20187;-82
2021/07/08 09:37:15;;;;;;;7.47;6.78;;;23.50;70.10;;;;;;5091567;28;20188;-81
2021/07/08 09:39:45;;;;;;;7.38;6.57;;;23.60;69.90;;;;;;5042333;28;20211;-80
2021/07/08 09:42:12;;;;;;;7.63;6.78;;;23.60;69.30;;;;;;5092669;28;20677;-82
2021/07/08 09:44:41;;;;;;;8.00;7.20;;;23.70;68.60;;;;;;5092430;28;20619;-80
2021/07/08 09:47:19;;;;;;;7.95;7.18;;;23.70;69.20;;;;;;5074211;28;20189;-83
2021/07/08 09:49:50;;;;;;;7.53;6.82;;;23.70;68.10;;;;;;5092448;28;20152;-82
2021/07/08 09:52:19;;;;;;;9.80;7.90;;;23.80;67.40;;;;;;5076779;28;20226;-80
2021/07/08 09:55:14;;;;;;;8.45;7.55;;;23.80;68.70;;;;;;5061010;28;20277;-79
2021/07/08 09:57:47;;;;;;;8.48;7.65;;;23.80;67.40;;;;;;5087390;28;20644;-79
2021/07/08 10:00:32;;;;;;;8.65;7.72;;;23.70;68.60;;;;;;5084019;28;20231;-82
2021/07/08 10:03:02;;;;;;;8.57;7.72;;;23.70;68.60;;;;;;5067386;28;20177;-80
2021/07/08 10:05:31;;;;;;;8.80;7.75;;;23.70;69.00;;;;;;5081255;28;20169;-81
2021/07/08 10:07:59;;;;;;;8.50;7.55;;;23.70;68.90;;;;;;5081450;28;20183;-81
2021/07/08 10:10:27;;;;;;;8.65;7.75;;;23.70;69.50;;;;;;5081244;28;20180;-83
2021/07/08 10:12:55;;;;;;;9.10;8.20;;;23.60;69.30;;;;;;5063400;28;20181;-79
2021/07/08 10:15:21;;;;;;;8.75;7.82;;;23.70;69.40;;;;;;5079452;28;20207;-82
2021/07/08 10:17:49;;;;;;;8.95;8.07;;;23.70;69.40;;;;;;5096831;28;20181;-84
2021/07/08 10:20:17;;;;;;;8.60;7.53;;;23.70;69.10;;;;;;5078193;28;20208;-81
2021/07/08 10:22:43;;;;;;;8.93;8.02;;;23.70;69.10;;;;;;5095790;28;20243;-80
2021/07/08 10:25:12;;;;;;;11.73;7.63;;;23.70;68.80;;;;;;5079154;28;20647;-80
2021/07/08 10:27:41;;;;;;;8.48;7.57;;;23.70;68.90;;;;;;5095298;28;20176;-82
2021/07/08 10:30:09;;;;;;;12.02;7.85;;;23.70;68.20;;;;;;5078717;28;20230;-82
2021/07/08 10:32:36;;;;;;;10.65;7.82;;;23.70;68.70;;;;;;5077865;28;20263;-81
2021/07/08 10:35:07;;;;;;;10.15;7.63;;;23.70;68.10;;;;;;5044752;28;20177;-80
2021/07/08 10:37:39;;;;;;;12.48;8.35;;;23.70;68.20;;;;;;5061003;28;20191;-82
2021/07/08 10:40:07;;;;;;;9.25;7.75;;;23.70;68.30;;;;;;5095126;27;20216;-80
2021/07/08 10:42:43;;;;;;;11.93;8.50;;;23.80;68.40;;;;;;5095081;28;20651;-82
2021/07/08 10:45:39;;;;;;;11.15;7.85;;;23.70;68.70;;;;;;5094777;27;20176;-80
2021/07/08 10:48:23;;;;;;;10.30;8.10;;;23.70;68.90;;;;;;5094913;28;20634;-82
2021/07/08 10:50:50;;;;;;;10.38;8.18;;;23.70;68.20;;;;;;5061020;28;20191;-79
2021/07/08 10:53:38;;;;;;;10.48;8.20;;;23.70;68.30;;;;;;5043240;28;20172;-80
2021/07/08 10:56:12;;;;;;;10.38;8.15;;;23.70;68.20;;;;;;5094910;28;20155;-82
2021/07/08 10:58:52;;;;;;;10.05;7.93;;;23.70;68.50;;;;;;5061208;28;20216;-83
2021/07/08 11:01:40;;;;;;;8.95;8.05;;;23.70;68.30;;;;;;5095678;28;20523;-81
2021/07/08 11:04:07;;;;;;;10.05;7.57;;;23.70;68.30;;;;;;5095370;28;20630;-84
2021/07/08 11:06:41;;;;;;;9.18;7.75;;;23.70;68.10;;;;;;5077474;28;20239;-83
2021/07/08 11:09:21;;;;;;;9.25;7.75;;;23.70;68.10;;;;;;5095417;27;20188;-83
2021/07/08 11:12:05;;;;;;;9.93;8.38;;;23.80;68.00;;;;;;5094903;28;20238;-84
2021/07/08 11:14:32;;;;;;;10.45;8.43;;;23.80;68.00;;;;;;5094589;28;20230;-78
2021/07/08 11:17:02;;;;;;;9.90;8.07;;;23.80;67.90;;;;;;5060672;28;20509;-82
2021/07/08 11:19:34;;;;;;;10.35;7.50;;;23.70;67.70;;;;;;5077994;28;20307;-83
2021/07/08 11:22:13;;;;;;;9.48;8.32;;;23.80;67.80;;;;;;5094954;28;20181;-80
2021/07/08 11:24:56;;;;;;;10.73;7.53;;;23.80;68.10;;;;;;5062953;28;20521;-84
2021/07/08 11:27:40;;;;;;;9.48;7.47;;;23.80;68.10;;;;;;5096354;28;20153;-82
2021/07/08 11:30:24;;;;;;;11.10;8.75;;;23.80;67.80;;;;;;5096634;28;20167;-83
2021/07/08 11:32:58;;;;;;;9.45;8.05;;;23.90;67.80;;;;;;5112198;28;20168;-80
2021/07/08 11:35:31;;;;;;;8.88;7.40;;;23.80;67.90;;;;;;5080354;28;20172;-80
2021/07/08 11:38:12;;;;;;;8.50;7.70;;;23.80;67.60;;;;;;5097394;28;20626;-79
2021/07/08 11:40:42;;;;;;;9.15;7.90;;;23.90;67.30;;;;;;5079605;28;20184;-83
2021/07/08 11:43:28;;;;;;;8.80;7.95;;;23.80;67.40;;;;;;5095979;28;20240;-79
2021/07/08 11:45:55;;;;;;;9.13;7.95;;;23.80;67.50;;;;;;5095688;28;20156;-83
2021/07/08 11:48:24;;;;;;;10.25;8.10;;;23.90;67.30;;;;;;5112293;28;20169;-82
2021/07/08 11:50:50;;;;;;;10.15;8.73;;;23.90;68.10;;;;;;5095057;28;20149;-81
2021/07/08 11:53:18;;;;;;;8.60;7.70;;;23.90;67.50;;;;;;5094397;28;20187;-82
2021/07/08 11:55:49;;;;;;;9.32;8.30;;;23.90;67.30;;;;;;5095184;28;20238;-79
2021/07/08 11:58:22;;;;;;;8.25;7.30;;;23.80;66.60;;;;;;5095611;28;20160;-81
2021/07/08 12:00:48;;;;;;;9.10;8.20;;;23.90;66.40;;;;;;5097085;28;20205;-80
2021/07/08 12:03:36;;;;;;;9.02;7.65;;;24.00;66.70;;;;;;5113179;28;20183;-78
2021/07/08 12:06:07;;;;;;;8.48;7.65;;;24.10;66.40;;;;;;5113534;28;20180;-81
2021/07/08 12:08:36;;;;;;;9.95;7.25;;;24.00;66.10;;;;;;5096408;28;20253;-80
2021/07/08 12:11:08;;;;;;;8.73;7.78;;;24.00;66.40;;;;;;5096347;28;20195;-84
2021/07/08 12:13:36;;;;;;;8.35;7.55;;;24.00;66.60;;;;;;5080950;28;20267;-84
2021/07/08 12:16:08;;;;;;;8.18;7.43;;;24.00;66.10;;;;;;5096494;28;20176;-80
2021/07/08 12:18:40;;;;;;;8.18;7.38;;;24.00;66.30;;;;;;5113963;28;20200;-79
2021/07/08 12:21:16;;;;;;;8.70;7.90;;;24.00;66.00;;;;;;5080741;28;20180;-80
2021/07/08 12:23:43;;;;;;;8.55;7.75;;;23.90;66.00;;;;;;5114526;28;20155;-80
2021/07/08 12:26:28;;;;;;;9.15;7.85;;;24.00;65.60;;;;;;5113321;28;20558;-79
2021/07/08 12:29:25;;;;;;;8.68;7.30;;;24.00;65.50;;;;;;5097488;28;20191;-81
2021/07/08 12:32:06;;;;;;;9.88;8.18;;;24.00;65.40;;;;;;5104559;28;20195;-80
2021/07/08 12:34:37;;;;;;;7.85;6.82;;;24.00;65.40;;;;;;5078753;28;20190;-81
2021/07/08 12:37:20;;;;;;;7.90;7.15;;;24.00;65.30;;;;;;5094837;28;20175;-80
2021/07/08 12:39:53;;;;;;;7.80;7.10;;;24.00;65.20;;;;;;5111804;28;20249;-80
2021/07/08 12:42:21;;;;;;;9.05;8.18;;;24.10;65.00;;;;;;5095272;28;20165;-82
2021/07/08 12:44:48;;;;;;;9.07;8.05;;;24.00;65.90;;;;;;5095541;28;20599;-83
2021/07/08 12:47:14;;;;;;;8.25;6.75;;;24.00;65.90;;;;;;5094620;28;20152;-82
2021/07/08 12:49:40;;;;;;;8.50;7.70;;;24.00;64.80;;;;;;5094667;28;20157;-81
2021/07/08 12:52:09;;;;;;;9.02;7.72;;;24.10;65.20;;;;;;5077899;28;20164;-79